SE Lincoln WX Station Historical Data
 
Daily Summary for June 03, 2020 Units:  English    Metric   Both
Daily Weekly Monthly Yearly Custom
  Current: High: Low: Average:
Temperature: 93.9 °F 94.7 °F 70.1 °F 81.1 °F
Dew Point: 60.9 °F 68.7 °F 58.2 °F 63.4 °F
Humidity: 33.5% 76.2% 31.9% 58%
Wind Speed: 2.8mph 6.7mph 0mph 2.1mph
Wind Gust: 5mph 13mph - -
WindESE - - SSE
Pressure: 29.72 in 29.85 in 29.72 in -
Precipitation: 0.00 in      
 
Tabular Data for June 03, 2020
Time Temperature Dew Point Pressure Wind Wind Speed Wind Gust Humidity Rainfall Rate (Hourly) solar
00:04 80.9 °F 68.5 °F 29.81 in WSW 3.1 mph 9 mph 66% 0.00 in 0 W/m2
00:09 80.8 °F 68.4 °F 29.82 in WSW 3.3 mph 9 mph 66% 0.00 in 0 W/m2
00:14 80.7 °F 68.3 °F 29.82 in SW 3.8 mph 8 mph 66% 0.00 in 0 W/m2
00:19 80.6 °F 68.2 °F 29.81 in SW 3.6 mph 8 mph 66% 0.00 in 0 W/m2
00:24 80.5 °F 68.3 °F 29.82 in WSW 2.4 mph 5 mph 66.5% 0.00 in 0 W/m2
00:29 80.4 °F 68.4 °F 29.82 in WSW 2.3 mph 6 mph 67% 0.00 in 0 W/m2
00:34 80.2 °F 68.3 °F 29.82 in WSW 2.9 mph 7 mph 67% 0.00 in 0 W/m2
00:39 80.1 °F 68.4 °F 29.82 in SW 2.1 mph 5 mph 67.7% 0.00 in 0 W/m2
00:44 79.9 °F 68.4 °F 29.82 in SW 1.7 mph 5 mph 68% 0.00 in 0 W/m2
00:49 79.8 °F 68.3 °F 29.82 in SW 1.4 mph 3 mph 68% 0.00 in 0 W/m2
00:54 79.6 °F 68.6 °F 29.82 in WSW 1.6 mph 5 mph 69% 0.00 in 0 W/m2
00:59 79.5 °F 68.5 °F 29.82 in WSW 0.9 mph 2 mph 69% 0.00 in 0 W/m2
01:04 79.3 °F 68.3 °F 29.82 in WSW 1.1 mph 3 mph 69% 0.00 in 0 W/m2
01:09 79.2 °F 68.3 °F 29.82 in SW 3 mph 9 mph 69.6% 0.00 in 0 W/m2
01:14 78.9 °F 68.3 °F 29.82 in SW 4.1 mph 11 mph 70% 0.00 in 0 W/m2
01:19 78.8 °F 68.3 °F 29.81 in SW 2.9 mph 7 mph 70.1% 0.00 in 0 W/m2
01:24 78.7 °F 68.6 °F 29.81 in SW 2.7 mph 5 mph 71% 0.00 in 0 W/m2
01:29 78.6 °F 68.4 °F 29.81 in WSW 2.7 mph 6 mph 71% 0.00 in 0 W/m2
01:34 78.5 °F 68.3 °F 29.81 in WSW 2.6 mph 6 mph 71% 0.00 in 0 W/m2
01:39 78.4 °F 68.5 °F 29.81 in SW 3.3 mph 7 mph 71.7% 0.00 in 0 W/m2
01:44 78.3 °F 68.5 °F 29.80 in SW 2.6 mph 7 mph 72% 0.00 in 0 W/m2
01:49 78.2 °F 68.5 °F 29.80 in SW 3.3 mph 6 mph 72% 0.00 in 0 W/m2
01:54 78.2 °F 68.4 °F 29.80 in WSW 2.8 mph 6 mph 72% 0.00 in 0 W/m2
01:59 78.1 °F 68.3 °F 29.80 in WSW 3.1 mph 6 mph 72% 0.00 in 0 W/m2
02:04 78.1 °F 68.3 °F 29.80 in WSW 2.8 mph 7 mph 72% 0.00 in 0 W/m2
02:09 78 °F 68.4 °F 29.79 in WSW 2.7 mph 5 mph 72.2% 0.00 in 0 W/m2
02:14 78 °F 68.7 °F 29.79 in SW 2.3 mph 5 mph 73% 0.00 in 0 W/m2
02:19 78 °F 68.6 °F 29.79 in WSW 2.1 mph 5 mph 73% 0.00 in 0 W/m2
02:24 77.9 °F 68.6 °F 29.79 in WSW 0.6 mph 4 mph 73% 0.00 in 0 W/m2
02:29 77.9 °F 68.5 °F 29.79 in WSW 0.7 mph 2 mph 73% 0.00 in 0 W/m2
02:34 77.8 °F 68.4 °F 29.79 in WSW 0.5 mph 2 mph 73% 0.00 in 0 W/m2
02:39 77.7 °F 68.4 °F 29.79 in WSW 0.5 mph 3 mph 73% 0.00 in 0 W/m2
02:44 77.6 °F 68.3 °F 29.78 in WSW 0.8 mph 3 mph 73% 0.00 in 0 W/m2
02:49 77.5 °F 68.2 °F 29.78 in WSW 1.1 mph 2 mph 73% 0.00 in 0 W/m2
02:54 77.5 °F 68.2 °F 29.78 in Calm   2 mph 73% 0.00 in 0 W/m2
02:59 77.4 °F 68.3 °F 29.78 in Calm   1 mph 73.7% 0.00 in 0 W/m2
03:04 77.3 °F 68.4 °F 29.78 in Calm   1 mph 74% 0.00 in 0 W/m2
03:09 77.2 °F 68.3 °F 29.79 in WSW 0.5 mph 2 mph 74% 0.00 in 0 W/m2
03:14 77 °F 68.4 °F 29.79 in WSW 0.3 mph 2 mph 74.7% 0.00 in 0 W/m2
03:19 76.8 °F 68.1 °F 29.79 in NW 1 mph 6 mph 74.6% 0.00 in 0 W/m2
03:24 76.4 °F 67.2 °F 29.79 in NW 1.5 mph 4 mph 73.2% 0.00 in 0 W/m2
03:29 76.1 °F 66 °F 29.79 in NNW 1.6 mph 4 mph 71% 0.00 in 0 W/m2
03:34 75.9 °F 65.4 °F 29.79 in NNW 1.3 mph 5 mph 69.8% 0.00 in 0 W/m2
03:39 75.7 °F 64.8 °F 29.79 in NW 0.9 mph 4 mph 69% 0.00 in 0 W/m2
03:44 75.5 °F 64.6 °F 29.79 in NNW 0.8 mph 3 mph 69% 0.00 in 0 W/m2
03:49 75.3 °F 64.7 °F 29.79 in NNW 0.9 mph 3 mph 69.7% 0.00 in 0 W/m2
03:54 75.1 °F 64.7 °F 29.80 in NNW 0.8 mph 3 mph 70% 0.00 in 0 W/m2
03:59 75 °F 64.5 °F 29.79 in NNW 1 mph 4 mph 70% 0.00 in 0 W/m2
04:04 74.7 °F 64.3 °F 29.79 in NNW 1.1 mph 4 mph 70% 0.00 in 0 W/m2
04:09 74.4 °F 64 °F 29.79 in NNW 0.9 mph 6 mph 70% 0.00 in 0 W/m2
04:14 74.1 °F 63.8 °F 29.79 in NNE 1.5 mph 4 mph 70.1% 0.00 in 0 W/m2
04:19 73.9 °F 63.5 °F 29.79 in SW 0.9 mph 4 mph 70.1% 0.00 in 0 W/m2
04:24 73.6 °F 63.3 °F 29.79 in NE 0.6 mph 3 mph 70% 0.00 in 0 W/m2
04:29 73.5 °F 63.2 °F 29.79 in NNW 1.7 mph 6 mph 70.2% 0.00 in 0 W/m2
04:34 73.3 °F 63.3 °F 29.79 in NNW 0.7 mph 4 mph 71% 0.00 in 0 W/m2
04:39 73.1 °F 63.1 °F 29.80 in NW 0.6 mph 4 mph 71% 0.00 in 0 W/m2
04:44 72.9 °F 63 °F 29.80 in WNW 0.8 mph 4 mph 71% 0.00 in 0 W/m2
04:49 72.8 °F 62.9 °F 29.80 in NNW 1 mph 3 mph 71.1% 0.00 in 0 W/m2
04:54 72.6 °F 63 °F 29.80 in NW 0.8 mph 3 mph 72% 0.00 in 0 W/m2
04:59 72.4 °F 62.9 °F 29.81 in NNW 0.9 mph 4 mph 72% 0.00 in 0 W/m2
05:04 72.3 °F 62.8 °F 29.81 in NNW 1.3 mph 3 mph 72% 0.00 in 0 W/m2
05:09 72.1 °F 62.6 °F 29.81 in NNW 1.7 mph 6 mph 72% 0.00 in 0 W/m2
05:14 72 °F 62.5 °F 29.82 in NNW 1.3 mph 6 mph 72% 0.00 in 0 W/m2
05:19 71.9 °F 62.4 °F 29.82 in NNW 1.9 mph 5 mph 72% 0.00 in 0 W/m2
05:24 71.7 °F 62.2 °F 29.82 in NNW 1.5 mph 4 mph 72% 0.00 in 0 W/m2
05:29 71.6 °F 62.2 °F 29.82 in North 1.4 mph 5 mph 72.1% 0.00 in 0 W/m2
05:34 71.6 °F 62.5 °F 29.82 in North 1.4 mph 3 mph 73% 0.00 in 0 W/m2
05:39 71.5 °F 62.4 °F 29.81 in NNW 1.9 mph 6 mph 73% 0.00 in 0 W/m2
05:44 71.4 °F 62.4 °F 29.81 in NW 1.7 mph 4 mph 73.4% 0.00 in 0 W/m2
05:49 71.2 °F 62.5 °F 29.81 in North 2.2 mph 6 mph 74% 0.00 in 0 W/m2
05:54 71.1 °F 62.4 °F 29.81 in NNW 1.3 mph 5 mph 74% 0.00 in 0 W/m2
05:59 71 °F 62.7 °F 29.81 in NNW 1.8 mph 4 mph 75% 0.00 in 0 W/m2
06:04 70.9 °F 62.6 °F 29.82 in NNW 1.8 mph 6 mph 75.1% 0.00 in 0 W/m2
06:09 70.8 °F 62.9 °F 29.82 in WNW 1.1 mph 4 mph 76% 0.00 in 5 W/m2
06:14 70.7 °F 62.8 °F 29.82 in WNW 1.1 mph 3 mph 76% 0.00 in 7 W/m2
06:19 70.5 °F 62.6 °F 29.82 in NNW 1.4 mph 4 mph 76% 0.00 in 11 W/m2
06:24 70.5 °F 62.5 °F 29.82 in NW 1.5 mph 5 mph 76% 0.00 in 11 W/m2
06:29 70.3 °F 62.5 °F 29.83 in NNW 1.9 mph 6 mph 76.2% 0.00 in 11 W/m2
06:34 70.3 °F 62.4 °F 29.83 in North 1.9 mph 4 mph 76% 0.00 in 14 W/m2
06:39 70.2 °F 62.3 °F 29.83 in North 1.4 mph 4 mph 76% 0.00 in 23 W/m2
06:44 70.2 °F 62.3 °F 29.82 in North 1.1 mph 3 mph 76% 0.00 in 33 W/m2
06:49 70.2 °F 62.2 °F 29.82 in NNE 1.9 mph 6 mph 76% 0.00 in 46 W/m2
06:54 70.1 °F 62.2 °F 29.81 in ENE 3 mph 11 mph 76% 0.00 in 63 W/m2
06:59 70.2 °F 62.2 °F 29.80 in East 2.5 mph 6 mph 75.8% 0.00 in 74 W/m2
07:04 70.2 °F 62 °F 29.81 in NNE 1.8 mph 6 mph 75.1% 0.00 in 74 W/m2
07:09 70.3 °F 62 °F 29.81 in NNE 2 mph 7 mph 75% 0.00 in 62 W/m2
07:14 70.4 °F 62.1 °F 29.82 in SSE 1.1 mph 5 mph 75% 0.00 in 53 W/m2
07:19 70.5 °F 62.1 °F 29.83 in NW 1.1 mph 4 mph 74.7% 0.00 in 44 W/m2
07:24 70.5 °F 62.1 °F 29.83 in NNE 1.3 mph 5 mph 74.8% 0.00 in 40 W/m2
07:29 70.5 °F 62.2 °F 29.83 in NE 0.9 mph 4 mph 75% 0.00 in 46 W/m2
07:34 70.5 °F 61.9 °F 29.83 in NE 2 mph 5 mph 74.3% 0.00 in 58 W/m2
07:39 70.5 °F 61.8 °F 29.83 in NNE 1.1 mph 5 mph 74% 0.00 in 60 W/m2
07:44 70.5 °F 61.8 °F 29.83 in East 3.1 mph 8 mph 74% 0.00 in 65 W/m2
07:49 70.5 °F 61.8 °F 29.83 in ENE 2.1 mph 8 mph 74% 0.00 in 69 W/m2
07:54 70.5 °F 61.8 °F 29.83 in NNE 2 mph 7 mph 74% 0.00 in 69 W/m2
07:59 70.5 °F 61.8 °F 29.83 in ENE 2 mph 6 mph 74% 0.00 in 72 W/m2
08:04 70.5 °F 61.8 °F 29.83 in ENE 2.5 mph 9 mph 74% 0.00 in 83 W/m2
08:09 70.6 °F 62 °F 29.83 in ENE 2.3 mph 8 mph 74.3% 0.00 in 95 W/m2
08:14 70.7 °F 62.2 °F 29.84 in ENE 2 mph 7 mph 74.5% 0.00 in 113 W/m2
08:19 70.8 °F 62.2 °F 29.84 in South 2 mph 5 mph 74.3% 0.00 in 132 W/m2
08:24 71 °F 62.3 °F 29.84 in WSW 1.5 mph 6 mph 74% 0.00 in 134 W/m2
08:29 71.2 °F 62.5 °F 29.85 in ENE 1.1 mph 4 mph 74% 0.00 in 123 W/m2
08:34 71.4 °F 62.7 °F 29.84 in East 1.3 mph 6 mph 74% 0.00 in 123 W/m2
08:39 71.6 °F 62.7 °F 29.84 in NNW 1.4 mph 6 mph 73.4% 0.00 in 139 W/m2
08:44 71.8 °F 63 °F 29.84 in East 1 mph 4 mph 73.8% 0.00 in 156 W/m2
08:49 72 °F 63 °F 29.84 in East 1.5 mph 5 mph 73.4% 0.00 in 176 W/m2
08:54 72.3 °F 63.4 °F 29.85 in NNW 1.7 mph 4 mph 73.8% 0.00 in 199 W/m2
08:59 72.6 °F 63.5 °F 29.85 in NE 2 mph 5 mph 73.1% 0.00 in 230 W/m2
09:04 72.9 °F 63.5 °F 29.84 in ENE 3.4 mph 7 mph 72.5% 0.00 in 378 W/m2
09:09 73.2 °F 63.9 °F 29.84 in ENE 3.3 mph 7 mph 72.5% 0.00 in 376 W/m2
09:14 73.8 °F 64.1 °F 29.84 in ENE 3.1 mph 8 mph 71.7% 0.00 in 339 W/m2
09:19 74.1 °F 64.1 °F 29.84 in NNE 2.4 mph 6 mph 71% 0.00 in 232 W/m2
09:24 74.4 °F 64.4 °F 29.84 in North 1.2 mph 3 mph 71% 0.00 in 332 W/m2
09:29 75 °F 64.7 °F 29.84 in North 1.6 mph 5 mph 70.4% 0.00 in 573 W/m2
09:34 76 °F 65.1 °F 29.85 in ENE 1.8 mph 6 mph 69% 0.00 in 563 W/m2
09:39 77.2 °F 65.3 °F 29.84 in ENE 2.3 mph 10 mph 66.8% 0.00 in 570 W/m2
09:44 77.7 °F 65 °F 29.85 in ENE 2.9 mph 7 mph 65.1% 0.00 in 329 W/m2
09:49 77.9 °F 65.2 °F 29.85 in ENE 2.4 mph 6 mph 64.9% 0.00 in 552 W/m2
09:54 78.7 °F 65.2 °F 29.85 in NNE 2 mph 7 mph 63.4% 0.00 in 598 W/m2
09:59 79.4 °F 64.7 °F 29.85 in NE 2.6 mph 7 mph 60.8% 0.00 in 619 W/m2
10:04 79.8 °F 64.7 °F 29.85 in East 3.2 mph 7 mph 60% 0.00 in 680 W/m2
10:09 80.4 °F 65 °F 29.85 in East 2.1 mph 7 mph 59.5% 0.00 in 803 W/m2
10:14 81.1 °F 64.7 °F 29.85 in NNE 3.9 mph 10 mph 57.6% 0.00 in 904 W/m2
10:19 81.6 °F 65.1 °F 29.85 in ENE 2 mph 6 mph 57.3% 0.00 in 928 W/m2
10:24 82.3 °F 64.3 °F 29.85 in ENE 2.3 mph 8 mph 54.6% 0.00 in 928 W/m2
10:29 82.7 °F 64.3 °F 29.85 in East 2.5 mph 6 mph 53.8% 0.00 in 867 W/m2
10:34 82.7 °F 64.2 °F 29.85 in NE 2.7 mph 8 mph 53.6% 0.00 in 475 W/m2
10:39 82.8 °F 64.3 °F 29.84 in East 1.9 mph 8 mph 53.8% 0.00 in 849 W/m2
10:44 83.3 °F 63.9 °F 29.84 in NNE 1.9 mph 5 mph 52.2% 0.00 in 788 W/m2
10:49 83.2 °F 63.8 °F 29.83 in East 1.9 mph 5 mph 52% 0.00 in 541 W/m2
10:54 83.5 °F 63.5 °F 29.83 in ENE 2.4 mph 6 mph 50.9% 0.00 in 1002 W/m2
10:59 83.9 °F 63.3 °F 29.83 in North 1.5 mph 5 mph 50% 0.00 in 1002 W/m2
11:04 84 °F 63 °F 29.83 in NNE 1.3 mph 6 mph 49.3% 0.00 in 388 W/m2
11:09 83.9 °F 63 °F 29.83 in NE 1.8 mph 6 mph 49.5% 0.00 in 378 W/m2
11:14 83.8 °F 62.4 °F 29.83 in NNW 1.4 mph 5 mph 48.7% 0.00 in 343 W/m2
11:19 83.6 °F 61.8 °F 29.83 in NE 2 mph 6 mph 48% 0.00 in 304 W/m2
11:24 83.5 °F 62.6 °F 29.83 in East 1.1 mph 6 mph 49.5% 0.00 in 362 W/m2
11:29 83.4 °F 61.8 °F 29.83 in ENE 1.8 mph 6 mph 48.2% 0.00 in 373 W/m2
11:34 83.5 °F 61.9 °F 29.83 in ENE 0.8 mph 3 mph 48.1% 0.00 in 364 W/m2
11:39 83.9 °F 61.6 °F 29.83 in ENE 2.3 mph 7 mph 47.1% 0.00 in 417 W/m2
11:44 84.1 °F 61.2 °F 29.83 in East 1.9 mph 6 mph 46.1% 0.00 in 339 W/m2
11:49 84.8 °F 60.9 °F 29.83 in East 3.1 mph 8 mph 44.7% 0.00 in 905 W/m2
11:54 85.8 °F 60.9 °F 29.82 in ENE 3.5 mph 7 mph 43.3% 0.00 in 881 W/m2
11:59 86.7 °F 61.3 °F 29.82 in NE 2.2 mph 5 mph 42.7% 0.00 in 868 W/m2
12:04 87.6 °F 61.7 °F 29.82 in NW 1.8 mph 4 mph 42% 0.00 in 861 W/m2
12:09 88.4 °F 61.6 °F 29.82 in East 2.7 mph 7 mph 40.9% 0.00 in 860 W/m2
12:14 88.6 °F 61.1 °F 29.82 in East 4.1 mph 12 mph 39.8% 0.00 in 865 W/m2
12:19 88.7 °F 60.4 °F 29.81 in ENE 3.1 mph 6 mph 38.7% 0.00 in 863 W/m2
12:24 88.7 °F 59.7 °F 29.81 in ENE 3.1 mph 8 mph 37.8% 0.00 in 868 W/m2
12:29 88.6 °F 58.2 °F 29.81 in East 6.7 mph 13 mph 35.9% 0.00 in 872 W/m2
12:34 88.6 °F 58.6 °F 29.81 in ENE 3.7 mph 10 mph 36.4% 0.00 in 872 W/m2
12:39 89 °F 59.7 °F 29.81 in NE 1.8 mph 7 mph 37.4% 0.00 in 874 W/m2
12:44 89.8 °F 59.6 °F 29.81 in ENE 4.4 mph 10 mph 36.4% 0.00 in 875 W/m2
12:49 89.7 °F 59.3 °F 29.81 in NE 2.2 mph 7 mph 36.1% 0.00 in 879 W/m2
12:54 90.5 °F 60.6 °F 29.81 in NNW 1.3 mph 3 mph 37% 0.00 in 879 W/m2
12:59 91.2 °F 61.3 °F 29.81 in NE 2 mph 8 mph 37% 0.00 in 882 W/m2
13:04 91.8 °F 61.3 °F 29.81 in East 2.5 mph 8 mph 36.3% 0.00 in 882 W/m2
13:09 92.3 °F 61.7 °F 29.81 in ENE 2.6 mph 6 mph 36.3% 0.00 in 886 W/m2
13:14 91.9 °F 59.2 °F 29.81 in ESE 2.7 mph 6 mph 33.5% 0.00 in 884 W/m2
13:19 91.2 °F 60.6 °F 29.81 in SSE 0.8 mph 4 mph 36% 0.00 in 884 W/m2
13:24 92.3 °F 61.2 °F 29.81 in ENE 2.1 mph 6 mph 35.6% 0.00 in 884 W/m2
13:29 92.8 °F 60.8 °F 29.81 in ENE 1.9 mph 6 mph 34.5% 0.00 in 886 W/m2
13:34 93 °F 60.9 °F 29.80 in ENE 1.3 mph 4 mph 34.5% 0.00 in 886 W/m2
13:39 92.9 °F 59.7 °F 29.80 in NE 1.3 mph 3 mph 33.2% 0.00 in 884 W/m2
13:44 92.5 °F 60 °F 29.80 in ESE 2.7 mph 5 mph 33.9% 0.00 in 882 W/m2
13:49 92.7 °F 61.3 °F 29.80 in NNW 1.9 mph 5 mph 35.3% 0.00 in 882 W/m2
13:54 92.8 °F 60.4 °F 29.80 in NNE 2.2 mph 8 mph 34% 0.00 in 881 W/m2
13:59 92.8 °F 59.4 °F 29.79 in ESE 5.3 mph 10 mph 32.9% 0.00 in 879 W/m2
14:04 92.2 °F 59 °F 29.79 in SSE 2.4 mph 7 mph 33.1% 0.00 in 879 W/m2
14:09 92.5 °F 61.3 °F 29.79 in South 1 mph 3 mph 35.6% 0.00 in 875 W/m2
14:14 93.7 °F 61.3 °F 29.79 in NW 1.2 mph 4 mph 34.2% 0.00 in 870 W/m2
14:19 94 °F 60.8 °F 29.78 in East 3.7 mph 8 mph 33.4% 0.00 in 865 W/m2
14:24 93.8 °F 60.9 °F 29.78 in ESE 3.4 mph 7 mph 33.7% 0.00 in 863 W/m2
14:29 93.5 °F 61.1 °F 29.78 in ESE 4.6 mph 10 mph 34.2% 0.00 in 861 W/m2
14:34 93.1 °F 60.3 °F 29.78 in ESE 2.1 mph 6 mph 33.6% 0.00 in 861 W/m2
14:39 93.5 °F 60.5 °F 29.78 in SE 2.9 mph 7 mph 33.5% 0.00 in 856 W/m2
14:44 93.4 °F 59.9 °F 29.78 in ESE 3.1 mph 6 mph 32.9% 0.00 in 856 W/m2
14:49 94 °F 62.1 °F 29.77 in ENE 1.4 mph 5 mph 34.8% 0.00 in 856 W/m2
14:54 94.6 °F 60.3 °F 29.77 in East 3.2 mph 8 mph 32.1% 0.00 in 856 W/m2
14:59 94.2 °F 60.7 °F 29.77 in ENE 2.9 mph 7 mph 32.9% 0.00 in 837 W/m2
15:04 94.2 °F 60.8 °F 29.77 in East 3.5 mph 8 mph 33.1% 0.00 in 828 W/m2
15:09 94.3 °F 61.1 °F 29.77 in East 3.7 mph 7 mph 33.3% 0.00 in 814 W/m2
15:14 94.3 °F 60.9 °F 29.77 in ENE 2.8 mph 7 mph 33.2% 0.00 in 807 W/m2
15:19 94 °F 61.6 °F 29.76 in East 2 mph 8 mph 34.3% 0.00 in 796 W/m2
15:24 94.3 °F 61.4 °F 29.76 in ESE 2.8 mph 8 mph 33.8% 0.00 in 789 W/m2
15:29 94.6 °F 61.3 °F 29.76 in East 3.9 mph 6 mph 33.3% 0.00 in 780 W/m2
15:34 94.6 °F 61.4 °F 29.75 in ESE 2.8 mph 7 mph 33.4% 0.00 in 773 W/m2
15:39 94 °F 60.2 °F 29.75 in SE 3.6 mph 6 mph 32.6% 0.00 in 766 W/m2
15:44 93.8 °F 60.4 °F 29.75 in SSE 2 mph 5 mph 33% 0.00 in 761 W/m2
15:49 94.1 °F 60.9 °F 29.75 in ESE 3.3 mph 6 mph 33.4% 0.00 in 745 W/m2
15:54 94.2 °F 60.3 °F 29.75 in ESE 3.6 mph 8 mph 32.5% 0.00 in 737 W/m2
15:59 94.1 °F 59.6 °F 29.75 in East 1.1 mph 4 mph 31.9% 0.00 in 733 W/m2
16:04 94.4 °F 60.1 °F 29.75 in NE 2.1 mph 5 mph 32.1% 0.00 in 721 W/m2
16:09 94.7 °F 60.3 °F 29.75 in SSW 2.6 mph 5 mph 32.1% 0.00 in 710 W/m2
16:14 94.5 °F 60.9 °F 29.74 in SSE 3.2 mph 9 mph 33% 0.00 in 696 W/m2
16:19 94.2 °F 60.6 °F 29.74 in ESE 4.5 mph 8 mph 32.8% 0.00 in 682 W/m2
16:24 94.1 °F 60.9 °F 29.74 in ESE 3 mph 7 mph 33.4% 0.00 in 677 W/m2
16:29 94.5 °F 60.8 °F 29.73 in ESE 3.2 mph 6 mph 32.8% 0.00 in 663 W/m2
16:34 94.5 °F 61.6 °F 29.73 in South 2 mph 6 mph 33.7% 0.00 in 656 W/m2
16:39 94.5 °F 61.1 °F 29.73 in SE 4.3 mph 8 mph 33.2% 0.00 in 642 W/m2
16:44 93.9 °F 60.6 °F 29.73 in SE 3.4 mph 8 mph 33.2% 0.00 in 635 W/m2
16:49 93.8 °F 61.4 °F 29.73 in ESE 4.4 mph 9 mph 34.2% 0.00 in 613 W/m2
16:54 93.6 °F 60.2 °F 29.73 in SSE 3.3 mph 6 mph 33% 0.00 in 605 W/m2
16:59 93.5 °F 59.6 °F 29.73 in South 2.2 mph 6 mph 32.4% 0.00 in 599 W/m2
17:02 93.9 °F 59.6 °F 29.72 in SSW 1.7 mph 5 mph 32% 0.00 in 585 W/m2
17:06 93.9 °F 60.9 °F 29.72 in ESE 2.8 mph 5 mph 33.5% 0.00 in 573 W/m2
66th and South
Compliments of Weather Underground - 12.35 mb